Time;durP1;ratioP1;P1;durP2;ratioP2;P2;SDS_P1;SDS_P2;PMS_P1;PMS_P2;Temp;Humidity;BMP_temperature;BMP_pressure;BME280_temperature;BME280_humidity;BME280_pressure;Samples;Min_cycle;Max_cycle;Signal;HPM_P1;HPM_P2
2022/03/26 00:00:23;;;;;;;100.68;40.22;;;4.80;99.90;;;;;;5046194;28;20160;-69
2022/03/26 00:02:51;;;;;;;94.00;38.85;;;4.80;99.90;;;;;;5052685;28;20064;-69
2022/03/26 00:05:17;;;;;;;96.60;39.85;;;4.80;99.90;;;;;;5094444;28;20369;-69
2022/03/26 00:07:44;;;;;;;98.25;39.35;;;4.70;99.90;;;;;;5095225;28;20153;-69
2022/03/26 00:10:11;;;;;;;94.60;37.95;;;4.80;99.90;;;;;;5059032;28;20043;-70
2022/03/26 00:12:39;;;;;;;105.43;41.20;;;4.80;99.90;;;;;;5063544;28;20036;-69
2022/03/26 00:15:06;;;;;;;102.82;40.35;;;4.80;99.90;;;;;;5073762;28;20048;-69
2022/03/26 00:17:32;;;;;;;104.72;41.72;;;4.70;99.90;;;;;;5083588;28;20048;-69
2022/03/26 00:19:58;;;;;;;96.03;38.50;;;4.80;99.90;;;;;;5070412;28;20490;-69
2022/03/26 00:22:24;;;;;;;109.72;42.60;;;4.80;99.90;;;;;;5059293;28;20045;-69
2022/03/26 00:24:50;;;;;;;104.55;42.60;;;5.20;99.90;;;;;;5045673;28;20032;-69
2022/03/26 00:27:17;;;;;;;108.38;42.85;;;4.80;99.90;;;;;;5067469;28;20468;-69
2022/03/26 00:29:43;;;;;;;88.95;38.50;;;4.80;99.90;;;;;;5076515;28;20050;-69
2022/03/26 00:32:09;;;;;;;94.15;36.67;;;4.80;99.90;;;;;;5076398;28;20035;-69
2022/03/26 00:34:36;;;;;;;103.53;40.63;;;4.80;99.90;;;;;;5075543;28;20418;-69
2022/03/26 00:37:02;;;;;;;109.20;41.95;;;4.80;99.90;;;;;;5094760;28;20058;-70
2022/03/26 00:39:28;;;;;;;100.82;39.63;;;4.80;99.90;;;;;;5055319;28;20048;-69
2022/03/26 00:41:54;;;;;;;105.22;42.40;;;4.80;99.90;;;;;;5082524;28;20043;-69
2022/03/26 00:44:20;;;;;;;90.28;35.83;;;4.80;99.90;;;;;;5041805;28;20044;-69
2022/03/26 00:46:47;;;;;;;89.38;36.70;;;4.70;99.90;;;;;;5071853;28;20040;-69
2022/03/26 00:49:17;;;;;;;97.82;37.25;;;4.60;99.90;;;;;;5087021;28;20047;-70
2022/03/26 00:51:44;;;;;;;104.43;40.35;;;4.60;99.90;;;;;;5074835;28;20380;-70
2022/03/26 00:54:10;;;;;;;107.35;40.83;;;4.50;99.90;;;;;;5072064;28;20039;-69
2022/03/26 00:56:38;;;;;;;109.95;43.13;;;4.50;99.90;;;;;;5058751;28;20362;-69
2022/03/26 00:59:05;;;;;;;120.75;45.70;;;4.60;99.90;;;;;;5072758;28;20087;-71
2022/03/26 01:01:32;;;;;;;102.20;39.35;;;4.60;99.90;;;;;;5092251;28;20048;-70
2022/03/26 01:03:59;;;;;;;107.53;42.22;;;4.60;99.90;;;;;;5091686;28;20188;-72
2022/03/26 01:06:26;;;;;;;119.38;44.60;;;4.60;99.90;;;;;;5068951;28;20456;-69
2022/03/26 01:08:52;;;;;;;110.20;43.35;;;4.50;99.90;;;;;;5060645;28;20098;-70
2022/03/26 01:11:18;;;;;;;118.25;46.10;;;4.50;99.90;;;;;;5038360;28;20054;-70
2022/03/26 01:13:45;;;;;;;117.53;43.80;;;4.40;99.90;;;;;;5057703;28;20427;-69
2022/03/26 01:16:12;;;;;;;124.65;45.60;;;4.40;99.90;;;;;;5074990;28;20036;-69
2022/03/26 01:18:40;;;;;;;116.53;43.20;;;4.40;99.90;;;;;;5092399;28;20058;-70
2022/03/26 01:21:06;;;;;;;131.63;48.50;;;4.30;99.90;;;;;;5061024;28;20047;-69
2022/03/26 01:23:33;;;;;;;130.77;48.85;;;4.30;99.90;;;;;;5054933;28;20048;-70
2022/03/26 01:25:59;;;;;;;145.88;51.22;;;4.30;99.90;;;;;;5055154;28;20060;-70
2022/03/26 01:28:26;;;;;;;149.80;52.63;;;4.20;99.90;;;;;;5071659;28;20109;-69
2022/03/26 01:30:52;;;;;;;146.30;52.30;;;4.20;99.90;;;;;;5054201;28;21087;-70
2022/03/26 01:33:18;;;;;;;153.90;53.70;;;4.10;99.90;;;;;;5055385;28;20036;-70
2022/03/26 01:35:44;;;;;;;160.30;54.53;;;4.10;99.90;;;;;;5057806;28;20036;-70
2022/03/26 01:38:10;;;;;;;129.82;47.92;;;4.10;99.90;;;;;;5063125;28;20051;-69
2022/03/26 01:40:37;;;;;;;129.05;47.35;;;4.00;99.90;;;;;;5040233;28;20388;-69
2022/03/26 01:43:04;;;;;;;121.18;44.33;;;4.00;99.90;;;;;;5055476;28;20048;-69
2022/03/26 01:45:30;;;;;;;122.95;42.22;;;3.90;99.90;;;;;;5063484;28;20114;-69
2022/03/26 01:47:57;;;;;;;112.55;42.00;;;3.90;99.90;;;;;;5046028;28;20063;-70
2022/03/26 01:50:25;;;;;;;124.75;43.38;;;3.90;99.90;;;;;;5040644;28;20123;-70
2022/03/26 01:52:51;;;;;;;113.97;42.75;;;3.70;99.90;;;;;;5052436;28;20048;-70
2022/03/26 01:55:19;;;;;;;120.10;43.63;;;3.70;99.90;;;;;;5038192;28;20048;-70
2022/03/26 01:57:45;;;;;;;122.95;41.72;;;3.60;99.90;;;;;;5064619;28;20043;-70
2022/03/26 02:00:12;;;;;;;113.57;40.95;;;3.60;99.90;;;;;;5053048;28;20032;-69
2022/03/26 02:02:43;;;;;;;135.10;46.33;;;3.50;99.90;;;;;;5059902;28;20048;-69
2022/03/26 02:05:19;;;;;;;153.65;50.15;;;3.50;99.90;;;;;;5070725;28;20071;-69
2022/03/26 02:07:47;;;;;;;143.32;48.08;;;3.50;99.90;;;;;;5055045;28;20047;-71
2022/03/26 02:10:18;;;;;;;135.13;47.50;;;3.50;99.90;;;;;;5043930;28;20468;-69
2022/03/26 02:12:46;;;;;;;141.27;47.75;;;3.50;99.90;;;;;;5055369;28;20120;-70
2022/03/26 02:15:14;;;;;;;148.13;49.40;;;3.40;99.90;;;;;;5054935;28;20123;-69
2022/03/26 02:17:41;;;;;;;160.85;52.65;;;3.40;99.90;;;;;;5055690;28;20123;-69
2022/03/26 02:20:09;;;;;;;142.00;48.15;;;3.50;99.90;;;;;;5067963;28;20097;-69
2022/03/26 02:22:36;;;;;;;159.30;52.92;;;3.50;99.90;;;;;;5027357;28;20060;-69
2022/03/26 02:25:03;;;;;;;159.10;52.75;;;3.50;99.90;;;;;;5054605;28;20048;-68
2022/03/26 02:27:30;;;;;;;174.77;55.45;;;3.60;99.90;;;;;;5071005;28;20431;-70
2022/03/26 02:29:56;;;;;;;148.90;51.33;;;3.60;99.90;;;;;;5071480;28;20079;-69
2022/03/26 02:32:24;;;;;;;130.15;44.97;;;4.20;99.90;;;;;;5033651;28;20418;-70
2022/03/26 02:34:51;;;;;;;159.48;52.05;;;3.60;99.90;;;;;;5070884;28;20070;-69
2022/03/26 02:37:18;;;;;;;158.25;53.08;;;3.50;99.90;;;;;;5071012;28;20032;-69
2022/03/26 02:39:44;;;;;;;180.68;56.58;;;3.50;99.90;;;;;;5038011;28;20050;-68
2022/03/26 02:42:12;;;;;;;160.40;52.58;;;3.50;99.90;;;;;;5070135;28;20083;-69
2022/03/26 02:44:38;;;;;;;168.43;54.72;;;3.50;99.90;;;;;;5070415;28;20054;-71
2022/03/26 02:47:05;;;;;;;170.93;55.13;;;3.50;99.90;;;;;;5080325;28;20107;-69
2022/03/26 02:49:31;;;;;;;168.05;55.28;;;3.50;99.90;;;;;;5071189;28;20067;-69
2022/03/26 02:51:57;;;;;;;182.25;56.30;;;3.50;99.90;;;;;;5003474;28;20044;-69
2022/03/26 02:54:23;;;;;;;140.25;47.17;;;3.50;99.90;;;;;;5031553;28;20062;-69
2022/03/26 02:56:51;;;;;;;134.40;46.97;;;3.40;99.90;;;;;;5070519;28;20102;-69
2022/03/26 02:59:18;;;;;;;141.70;51.28;;;3.40;99.90;;;;;;5045643;28;20526;-69
2022/03/26 03:01:45;;;;;;;146.25;51.55;;;3.40;99.90;;;;;;5052079;28;20086;-69
2022/03/26 03:04:11;;;;;;;186.45;58.03;;;3.30;99.90;;;;;;5036753;28;20474;-69
2022/03/26 03:06:38;;;;;;;194.00;57.42;;;3.30;99.90;;;;;;5034899;28;20384;-69
2022/03/26 03:09:07;;;;;;;166.63;51.63;;;3.30;99.90;;;;;;5053422;28;20053;-70
2022/03/26 03:11:34;;;;;;;187.68;56.03;;;3.30;99.90;;;;;;5032110;28;20094;-68
2022/03/26 03:14:01;;;;;;;157.18;51.20;;;3.30;99.90;;;;;;5036949;28;20039;-69
2022/03/26 03:16:27;;;;;;;149.48;50.10;;;3.80;99.90;;;;;;5055708;28;20123;-69
2022/03/26 03:18:53;;;;;;;173.93;54.15;;;3.20;99.90;;;;;;5046055;28;20136;-70
2022/03/26 03:21:19;;;;;;;177.55;55.35;;;3.20;99.90;;;;;;5050739;28;20056;-69
2022/03/26 03:23:45;;;;;;;178.38;56.88;;;3.20;99.90;;;;;;5070460;28;20047;-71
2022/03/26 03:26:11;;;;;;;189.27;56.15;;;3.20;99.90;;;;;;5017549;28;20053;-69
2022/03/26 03:28:38;;;;;;;174.88;55.28;;;3.20;99.90;;;;;;5037517;28;20078;-69
2022/03/26 03:31:04;;;;;;;178.93;55.15;;;3.20;99.90;;;;;;5052611;28;20094;-69
2022/03/26 03:33:30;;;;;;;153.10;51.67;;;3.90;99.90;;;;;;5036668;28;20040;-70
2022/03/26 03:35:57;;;;;;;162.63;52.63;;;3.30;99.90;;;;;;5037043;28;20481;-69
2022/03/26 03:38:22;;;;;;;183.55;57.13;;;3.30;99.90;;;;;;5036654;28;20032;-70
2022/03/26 03:40:48;;;;;;;167.30;54.63;;;3.20;99.90;;;;;;5041550;28;20047;-71
2022/03/26 03:43:14;;;;;;;151.48;51.58;;;3.20;99.90;;;;;;5057578;28;20047;-69
2022/03/26 03:45:41;;;;;;;164.40;52.78;;;3.20;99.90;;;;;;5053218;28;20051;-69
2022/03/26 03:48:07;;;;;;;159.27;52.10;;;3.20;99.90;;;;;;5070042;28;20036;-68
2022/03/26 03:50:33;;;;;;;166.38;53.40;;;3.20;99.90;;;;;;5016440;28;20040;-69
2022/03/26 03:52:59;;;;;;;139.73;48.38;;;3.20;99.90;;;;;;5050276;28;20047;-71
2022/03/26 03:55:25;;;;;;;189.25;59.03;;;3.20;99.90;;;;;;5053415;28;20119;-70
2022/03/26 03:57:51;;;;;;;219.48;64.80;;;3.20;99.90;;;;;;5052763;28;20050;-69
2022/03/26 04:00:17;;;;;;;178.90;57.40;;;3.20;99.90;;;;;;5052916;28;20036;-69
2022/03/26 04:02:43;;;;;;;159.43;49.88;;;3.20;99.90;;;;;;5048925;28;20136;-69
2022/03/26 04:05:10;;;;;;;144.48;46.70;;;3.20;99.90;;;;;;5034512;28;20123;-70
2022/03/26 04:07:40;;;;;;;137.02;48.45;;;3.20;99.90;;;;;;5069819;28;20048;-69
2022/03/26 04:10:07;;;;;;;165.85;52.05;;;3.20;99.90;;;;;;5053489;28;20048;-70
2022/03/26 04:12:34;;;;;;;154.55;50.20;;;3.10;99.90;;;;;;5032624;28;20127;-69
2022/03/26 04:15:00;;;;;;;160.02;52.72;;;3.20;99.90;;;;;;5022806;28;20044;-70
2022/03/26 04:17:26;;;;;;;150.50;47.88;;;3.20;99.90;;;;;;5053058;28;20044;-69
2022/03/26 04:19:53;;;;;;;171.57;52.17;;;3.10;99.90;;;;;;5020046;28;20354;-69
2022/03/26 04:22:19;;;;;;;176.70;55.75;;;3.00;99.90;;;;;;5049988;28;20044;-70
2022/03/26 04:24:45;;;;;;;161.48;52.90;;;2.90;99.90;;;;;;5035872;28;20044;-71
2022/03/26 04:27:11;;;;;;;158.07;51.63;;;2.90;99.90;;;;;;5055820;28;20543;-70
2022/03/26 04:29:37;;;;;;;188.75;57.85;;;3.00;99.90;;;;;;5056422;28;20048;-70
2022/03/26 04:32:04;;;;;;;172.93;56.05;;;2.90;99.90;;;;;;5069791;28;20052;-71
2022/03/26 04:34:30;;;;;;;185.43;59.08;;;2.90;99.90;;;;;;5018808;28;20053;-70
2022/03/26 04:36:56;;;;;;;206.75;61.40;;;2.90;99.90;;;;;;5020263;28;20376;-70
2022/03/26 04:39:22;;;;;;;203.13;59.58;;;3.00;99.90;;;;;;5056786;28;20044;-70
2022/03/26 04:41:48;;;;;;;169.70;54.47;;;2.90;99.90;;;;;;5038971;28;20047;-69
2022/03/26 04:44:15;;;;;;;162.63;52.47;;;2.90;99.90;;;;;;5013534;28;20469;-70
2022/03/26 04:46:41;;;;;;;155.60;51.63;;;2.80;99.90;;;;;;5055163;28;20040;-70
2022/03/26 04:49:07;;;;;;;171.32;52.78;;;2.80;99.90;;;;;;5052788;28;20040;-70
2022/03/26 04:51:34;;;;;;;164.25;53.70;;;2.80;99.90;;;;;;5052529;28;20067;-70
2022/03/26 04:53:59;;;;;;;187.38;45.25;;;2.80;99.90;;;;;;5051748;28;20076;-71
2022/03/26 04:56:25;;;;;;;128.70;42.20;;;2.80;99.90;;;;;;5056029;28;20099;-70
2022/03/26 04:58:53;;;;;;;151.20;49.08;;;2.60;99.90;;;;;;5054766;28;20449;-69
2022/03/26 05:01:19;;;;;;;160.13;50.42;;;2.60;99.90;;;;;;5068933;28;20054;-70
2022/03/26 05:03:45;;;;;;;162.60;53.72;;;2.60;99.90;;;;;;5068655;28;20374;-71
2022/03/26 05:06:11;;;;;;;162.13;52.65;;;2.60;99.90;;;;;;5064819;28;20507;-72
2022/03/26 05:08:36;;;;;;;199.73;58.17;;;2.60;99.90;;;;;;5036176;28;20094;-70
2022/03/26 05:11:02;;;;;;;174.63;54.83;;;2.60;99.90;;;;;;5029178;28;20051;-70
2022/03/26 05:13:28;;;;;;;180.35;55.78;;;2.60;99.90;;;;;;5019418;28;20160;-71
2022/03/26 05:15:54;;;;;;;175.38;52.28;;;2.60;99.90;;;;;;5047820;28;20437;-70
2022/03/26 05:18:20;;;;;;;142.85;46.75;;;2.60;99.90;;;;;;5050440;28;20365;-70
2022/03/26 05:20:46;;;;;;;143.98;44.78;;;2.50;99.90;;;;;;5002618;28;20048;-70
2022/03/26 05:23:12;;;;;;;177.68;54.08;;;2.40;99.90;;;;;;5036252;28;20124;-70
2022/03/26 05:25:38;;;;;;;157.95;50.78;;;2.40;99.90;;;;;;5032000;28;20182;-69
2022/03/26 05:28:04;;;;;;;171.70;52.47;;;2.50;99.90;;;;;;5033553;28;20045;-70
2022/03/26 05:30:30;;;;;;;172.88;51.95;;;2.50;99.90;;;;;;5019205;28;20102;-70
2022/03/26 05:32:56;;;;;;;157.20;48.03;;;2.50;99.90;;;;;;5032285;28;20048;-70
2022/03/26 05:35:22;;;;;;;177.45;54.58;;;3.20;99.90;;;;;;5016675;28;20044;-70
2022/03/26 05:37:49;;;;;;;165.57;51.05;;;2.40;99.90;;;;;;5016660;28;20040;-70
2022/03/26 05:40:17;;;;;;;188.13;55.08;;;2.40;99.90;;;;;;5051878;28;20170;-71
2022/03/26 05:42:44;;;;;;;194.10;54.35;;;2.50;99.90;;;;;;5023000;28;21830;-71
2022/03/26 05:45:10;;;;;;;166.43;50.28;;;2.50;99.90;;;;;;5030264;28;20086;-70
2022/03/26 05:47:40;;;;;;;181.50;53.67;;;2.50;99.90;;;;;;5016998;28;20045;-70
2022/03/26 05:50:11;;;;;;;172.90;51.25;;;2.40;99.90;;;;;;5034327;28;20051;-71
2022/03/26 05:52:37;;;;;;;;;;;2.50;99.90;;;;;;5033141;28;20416;-70
2022/03/26 05:55:04;;;;;;;155.90;46.55;;;2.50;99.90;;;;;;5013506;28;19917;-69
2022/03/26 05:57:30;;;;;;;146.88;45.67;;;2.50;99.90;;;;;;5033292;28;20041;-70
2022/03/26 05:59:56;;;;;;;156.73;49.20;;;2.50;99.90;;;;;;5019738;28;20048;-69
2022/03/26 06:02:22;;;;;;;136.30;43.83;;;2.50;99.90;;;;;;5038539;28;20070;-72
2022/03/26 06:04:48;;;;;;;127.72;42.90;;;2.60;99.90;;;;;;5015506;28;20108;-70
2022/03/26 06:07:14;;;;;;;135.95;45.03;;;2.60;99.90;;;;;;5013073;28;20044;-70
2022/03/26 06:09:40;;;;;;;144.10;46.97;;;3.60;99.90;;;;;;5035406;28;20068;-70
2022/03/26 06:12:07;;;;;;;138.35;47.42;;;2.80;99.90;;;;;;5032598;28;20374;-70
2022/03/26 06:14:34;;;;;;;144.93;46.58;;;2.80;99.90;;;;;;5033857;28;20033;-69
2022/03/26 06:17:00;;;;;;;152.27;48.15;;;2.90;99.90;;;;;;5017972;28;20037;-70
2022/03/26 06:19:26;;;;;;;146.82;47.95;;;3.00;99.90;;;;;;5023237;28;20057;-69
2022/03/26 06:21:53;;;;;;;205.85;59.72;;;3.10;99.90;;;;;;5055058;28;20048;-70
2022/03/26 06:24:20;;;;;;;242.52;66.38;;;3.30;99.90;;;;;;5037784;28;20044;-70
2022/03/26 06:26:48;;;;;;;149.18;48.75;;;3.50;99.90;;;;;;5070403;28;20048;-70
2022/03/26 06:29:15;;;;;;;141.27;47.65;;;3.60;99.90;;;;;;5038454;28;20114;-71
2022/03/26 06:31:41;;;;;;;147.45;47.00;;;3.60;99.90;;;;;;5052866;28;20047;-71
2022/03/26 06:34:07;;;;;;;148.18;47.58;;;3.70;99.90;;;;;;5018867;28;20048;-69
2022/03/26 06:36:36;;;;;;;170.85;52.67;;;3.80;99.90;;;;;;5018845;28;20040;-71
2022/03/26 06:39:04;;;;;;;196.68;55.65;;;4.00;99.90;;;;;;5021935;28;20088;-69
2022/03/26 06:41:30;;;;;;;208.68;59.97;;;4.40;99.90;;;;;;5035565;28;20044;-71
2022/03/26 06:43:55;;;;;;;261.05;69.43;;;4.60;99.90;;;;;;5051847;28;20050;-71
2022/03/26 06:46:21;;;;;;;267.00;77.50;;;4.90;99.90;;;;;;5050704;28;20048;-72
2022/03/26 06:48:47;;;;;;;273.17;76.13;;;5.20;99.90;;;;;;5036172;28;20067;-70
2022/03/26 06:51:13;;;;;;;255.88;74.97;;;5.50;99.90;;;;;;5036390;28;20040;-70
2022/03/26 06:53:40;;;;;;;240.50;72.60;;;5.80;99.90;;;;;;5033994;28;20075;-70
2022/03/26 06:56:06;;;;;;;243.90;74.35;;;6.10;99.90;;;;;;5050410;28;20040;-71
2022/03/26 06:58:33;;;;;;;223.82;72.13;;;6.30;99.90;;;;;;5050805;28;20449;-70
2022/03/26 07:00:59;;;;;;;206.07;68.95;;;6.50;99.90;;;;;;5070248;28;21665;-70
2022/03/26 07:03:25;;;;;;;212.35;71.72;;;6.70;99.90;;;;;;5048622;28;20044;-69
2022/03/26 07:05:51;;;;;;;194.32;66.03;;;7.00;99.90;;;;;;5046658;28;20041;-70
2022/03/26 07:08:17;;;;;;;169.13;57.47;;;7.20;99.90;;;;;;5030608;28;20051;-70
2022/03/26 07:10:45;;;;;;;177.65;62.40;;;7.40;99.90;;;;;;5015884;28;20044;-70
2022/03/26 07:13:14;;;;;;;166.10;60.17;;;7.60;99.90;;;;;;5036236;28;20078;-70
2022/03/26 07:15:41;;;;;;;167.18;59.90;;;7.80;99.90;;;;;;5069586;28;20449;-70
2022/03/26 07:18:08;;;;;;;156.77;59.05;;;8.20;99.90;;;;;;5053086;28;20079;-71
2022/03/26 07:20:34;;;;;;;160.25;61.55;;;8.10;99.90;;;;;;5036197;28;20048;-70
2022/03/26 07:23:00;;;;;;;171.18;64.88;;;8.20;99.90;;;;;;5052483;28;20174;-73
2022/03/26 07:25:26;;;;;;;152.02;58.35;;;8.40;99.90;;;;;;5035871;28;20473;-71
2022/03/26 07:27:52;;;;;;;150.15;57.47;;;8.60;99.90;;;;;;5045072;28;20073;-70
2022/03/26 07:30:19;;;;;;;145.93;56.80;;;8.70;99.90;;;;;;5053408;28;20060;-70
2022/03/26 07:32:45;;;;;;;137.18;52.40;;;8.80;99.90;;;;;;5037430;28;20473;-70
2022/03/26 07:35:11;;;;;;;136.07;52.55;;;8.90;99.90;;;;;;5050570;28;20051;-69
2022/03/26 07:37:37;;;;;;;140.15;56.35;;;9.00;99.90;;;;;;5036027;28;20047;-69
2022/03/26 07:40:04;;;;;;;141.10;54.95;;;9.10;99.90;;;;;;5046690;28;20040;-69
2022/03/26 07:42:30;;;;;;;142.40;55.13;;;9.20;99.90;;;;;;5042195;28;20051;-68
2022/03/26 07:44:56;;;;;;;135.45;54.22;;;9.30;99.90;;;;;;5061955;28;20040;-70
2022/03/26 07:47:22;;;;;;;141.60;54.35;;;9.50;99.90;;;;;;5036843;28;20127;-70
2022/03/26 07:49:48;;;;;;;127.95;51.58;;;9.60;99.90;;;;;;5056770;28;20041;-69
2022/03/26 07:52:14;;;;;;;132.10;54.78;;;9.80;99.90;;;;;;5042354;28;20036;-69
2022/03/26 07:54:40;;;;;;;125.82;51.90;;;9.90;99.90;;;;;;5049150;28;20090;-69
2022/03/26 07:57:06;;;;;;;116.35;45.42;;;10.00;99.90;;;;;;5035661;28;20101;-69
2022/03/26 07:59:32;;;;;;;119.43;49.90;;;10.10;99.90;;;;;;5020601;28;20045;-70
2022/03/26 08:01:58;;;;;;;125.25;53.17;;;10.10;99.90;;;;;;5073761;28;20071;-69
2022/03/26 08:04:24;;;;;;;120.18;51.42;;;10.30;99.90;;;;;;5052691;28;20461;-69
2022/03/26 08:06:50;;;;;;;117.80;50.22;;;10.50;99.90;;;;;;5055979;28;20052;-69
2022/03/26 08:09:15;;;;;;;117.25;49.83;;;10.70;99.90;;;;;;5039298;28;20124;-68
2022/03/26 08:11:42;;;;;;;106.05;45.30;;;10.80;99.90;;;;;;5071236;28;20051;-69
2022/03/26 08:14:08;;;;;;;102.10;45.47;;;10.90;99.90;;;;;;5039886;28;20085;-69
2022/03/26 08:16:35;;;;;;;105.85;46.15;;;11.00;99.90;;;;;;5031132;28;20049;-68
2022/03/26 08:19:00;;;;;;;97.70;42.78;;;11.10;99.90;;;;;;5019017;28;20055;-69
2022/03/26 08:21:26;;;;;;;94.70;42.00;;;11.20;99.90;;;;;;5009587;28;20062;-69
2022/03/26 08:23:54;;;;;;;100.35;43.63;;;11.30;99.90;;;;;;5021588;28;20076;-70
2022/03/26 08:26:22;;;;;;;92.90;43.72;;;11.40;99.90;;;;;;5036036;28;20041;-69
2022/03/26 08:28:49;;;;;;;92.35;42.35;;;11.60;99.90;;;;;;5029947;28;20041;-68
2022/03/26 08:31:17;;;;;;;94.05;41.47;;;11.90;99.90;;;;;;5014302;28;20033;-70
2022/03/26 08:33:44;;;;;;;90.43;40.65;;;12.10;99.90;;;;;;5045525;28;20079;-69
2022/03/26 08:36:10;;;;;;;83.05;39.58;;;12.20;99.90;;;;;;4992816;28;20037;-69
2022/03/26 08:38:36;;;;;;;84.60;40.67;;;12.30;99.90;;;;;;5036541;28;20501;-69
2022/03/26 08:41:03;;;;;;;82.00;40.35;;;12.40;99.90;;;;;;5036235;28;20075;-68
2022/03/26 08:43:29;;;;;;;83.97;39.30;;;12.50;99.90;;;;;;5046839;28;20425;-69
2022/03/26 08:45:55;;;;;;;80.97;40.50;;;12.70;99.90;;;;;;5023361;28;20078;-68
2022/03/26 08:48:21;;;;;;;77.50;39.97;;;12.80;99.90;;;;;;5018683;28;20037;-69
2022/03/26 08:50:47;;;;;;;78.88;39.58;;;12.90;99.90;;;;;;5025319;28;20120;-68
2022/03/26 08:53:13;;;;;;;73.15;37.88;;;13.10;99.90;;;;;;5056568;28;20043;-70
2022/03/26 08:55:39;;;;;;;76.30;39.25;;;13.10;99.90;;;;;;5061348;28;20056;-69
2022/03/26 08:58:07;;;;;;;72.35;37.53;;;13.30;99.90;;;;;;5011892;28;20592;-69
2022/03/26 09:00:34;;;;;;;69.57;36.40;;;13.40;99.90;;;;;;5052431;28;20063;-69
2022/03/26 09:03:01;;;;;;;72.03;35.90;;;13.50;99.90;;;;;;5035840;28;20053;-69
2022/03/26 09:05:28;;;;;;;64.90;33.67;;;13.60;99.90;;;;;;5029185;28;20052;-68
2022/03/26 09:07:54;;;;;;;70.18;34.83;;;13.60;99.90;;;;;;5018961;28;20045;-68
2022/03/26 09:10:20;;;;;;;68.93;34.63;;;13.60;99.90;;;;;;5034873;28;20127;-68
2022/03/26 09:12:46;;;;;;;62.05;31.48;;;13.80;99.90;;;;;;5050081;28;20127;-69
2022/03/26 09:15:13;;;;;;;69.47;33.65;;;14.00;99.90;;;;;;5024209;28;20048;-69
2022/03/26 09:17:39;;;;;;;65.15;34.45;;;14.10;99.90;;;;;;5015100;28;20044;-68
2022/03/26 09:20:09;;;;;;;64.93;32.92;;;14.20;99.90;;;;;;5060001;28;20140;-69
2022/03/26 09:22:35;;;;;;;59.95;31.50;;;14.40;99.90;;;;;;5035932;28;20040;-68
2022/03/26 09:25:03;;;;;;;61.88;33.05;;;14.60;99.90;;;;;;5054829;28;20036;-68
2022/03/26 09:27:29;;;;;;;58.33;31.55;;;14.50;99.90;;;;;;5049753;28;20121;-69
2022/03/26 09:29:55;;;;;;;53.10;28.27;;;14.60;99.90;;;;;;5071599;28;20094;-71
2022/03/26 09:32:22;;;;;;;45.67;25.13;;;14.80;99.90;;;;;;5055856;28;20063;-73
2022/03/26 09:34:48;;;;;;;50.60;24.88;;;15.00;99.90;;;;;;5080381;28;20170;-74
2022/03/26 09:37:15;;;;;;;47.08;26.33;;;15.20;99.90;;;;;;5067416;28;20032;-73
2022/03/26 09:39:41;;;;;;;42.00;23.10;;;15.40;99.90;;;;;;5045148;28;20484;-73
2022/03/26 09:42:11;;;;;;;44.45;23.00;;;15.20;99.90;;;;;;5072942;28;20040;-76
2022/03/26 09:44:38;;;;;;;49.55;25.00;;;15.60;99.90;;;;;;5065011;28;20052;-74
2022/03/26 09:47:05;;;;;;;45.15;24.05;;;15.70;99.90;;;;;;5038659;28;20052;-72
2022/03/26 09:49:31;;;;;;;41.75;23.98;;;15.70;99.90;;;;;;5022384;28;20049;-71
2022/03/26 09:51:57;;;;;;;40.15;21.95;;;15.80;99.90;;;;;;5054034;28;20040;-71
2022/03/26 09:54:24;;;;;;;39.78;23.42;;;16.00;99.90;;;;;;5050528;28;20037;-71
2022/03/26 09:56:50;;;;;;;40.65;22.10;;;16.30;99.90;;;;;;5054805;28;20755;-71
2022/03/26 09:59:20;;;;;;;37.78;20.65;;;16.30;99.90;;;;;;5032034;28;20061;-72
2022/03/26 10:01:47;;;;;;;39.17;20.97;;;16.60;99.90;;;;;;5049274;28;20048;-72
2022/03/26 10:04:14;;;;;;;31.23;17.83;;;16.70;99.90;;;;;;5029831;28;20047;-71
2022/03/26 10:06:47;;;;;;;26.65;15.95;;;16.80;99.90;;;;;;5037827;28;20075;-71
2022/03/26 10:09:13;;;;;;;30.08;17.02;;;16.80;99.90;;;;;;5052624;28;20366;-71
2022/03/26 10:11:41;;;;;;;26.15;16.00;;;16.70;99.90;;;;;;5054423;28;20044;-72
2022/03/26 10:14:06;;;;;;;27.95;16.45;;;16.80;99.90;;;;;;5053930;28;20045;-71
2022/03/26 10:16:32;;;;;;;30.52;17.17;;;16.80;99.90;;;;;;5052560;28;20049;-72
2022/03/26 10:18:59;;;;;;;27.67;16.27;;;16.90;99.90;;;;;;5014075;28;20481;-72
2022/03/26 10:21:25;;;;;;;26.30;14.70;;;17.00;99.90;;;;;;5012651;28;20505;-71
2022/03/26 10:23:53;;;;;;;23.85;15.52;;;16.80;99.90;;;;;;5037820;28;20115;-73
2022/03/26 10:26:24;;;;;;;26.27;14.15;;;17.00;99.90;;;;;;5017180;28;20124;-76
2022/03/26 10:28:52;;;;;;;23.50;13.13;;;16.90;99.90;;;;;;5050187;28;20047;-74
2022/03/26 10:34:11;;;;;;;20.15;13.48;;;17.20;99.90;;;;;;5050421;28;20053;-70
2022/03/26 10:36:47;;;;;;;21.35;12.93;;;17.50;99.90;;;;;;5034006;28;20044;-72
2022/03/26 10:39:22;;;;;;;19.52;11.10;;;17.50;99.90;;;;;;5017606;28;20124;-73
2022/03/26 10:41:49;;;;;;;22.63;12.77;;;17.50;94.50;;;;;;5007461;28;20080;-72
2022/03/26 10:44:17;;;;;;;20.05;11.98;;;17.40;94.90;;;;;;5024512;28;20045;-73
2022/03/26 10:46:52;;;;;;;19.10;11.38;;;17.50;99.90;;;;;;5015908;28;20462;-72
2022/03/26 10:49:44;;;;;;;19.38;11.90;;;17.50;92.40;;;;;;5033576;28;20051;-72
2022/03/26 10:52:16;;;;;;;15.23;10.55;;;17.70;91.40;;;;;;5026366;28;20048;-72
2022/03/26 10:54:42;;;;;;;19.13;11.43;;;17.90;91.80;;;;;;5050568;28;20501;-72
2022/03/26 10:57:08;;;;;;;18.08;11.85;;;17.80;90.70;;;;;;5030584;28;20037;-72
2022/03/26 10:59:34;;;;;;;15.82;10.65;;;17.80;88.70;;;;;;5019019;28;20750;-72
2022/03/26 11:02:01;;;;;;;19.15;11.77;;;17.90;90.50;;;;;;5036924;28;20047;-72
2022/03/26 11:04:30;;;;;;;17.73;11.38;;;18.10;89.80;;;;;;5067586;28;20041;-72
2022/03/26 11:06:57;;;;;;;21.35;11.90;;;17.70;90.50;;;;;;5023294;28;20044;-73
2022/03/26 11:09:26;;;;;;;18.45;10.77;;;17.70;89.40;;;;;;5054361;28;20040;-72
2022/03/26 11:11:52;;;;;;;16.92;9.88;;;17.80;91.30;;;;;;5016627;28;20052;-72
2022/03/26 11:14:24;;;;;;;13.57;8.27;;;18.00;89.10;;;;;;5051533;28;20171;-73
2022/03/26 11:16:57;;;;;;;;;;;17.90;88.70;;;;;;5050177;28;20444;-72
2022/03/26 11:19:53;;;;;;;12.75;6.78;;;17.70;85.70;;;;;;5043582;28;19925;-72
2022/03/26 11:22:41;;;;;;;10.77;5.75;;;18.00;83.20;;;;;;5032972;28;20037;-73
2022/03/26 11:25:41;;;;;;;8.23;5.40;;;18.30;83.10;;;;;;5034586;28;20033;-71
2022/03/26 11:28:41;;;;;;;9.98;6.18;;;18.50;77.10;;;;;;5056736;28;20041;-72
2022/03/26 11:31:17;;;;;;;12.27;6.60;;;18.70;76.50;;;;;;5070576;28;20087;-73
2022/03/26 11:33:47;;;;;;;7.93;5.45;;;18.50;77.90;;;;;;5069992;28;20051;-74
2022/03/26 11:36:17;;;;;;;7.35;4.50;;;18.60;78.80;;;;;;5042305;28;20139;-72
2022/03/26 11:38:55;;;;;;;7.30;4.45;;;18.50;75.80;;;;;;5038163;28;20040;-73
2022/03/26 11:41:32;;;;;;;5.75;3.90;;;18.60;75.40;;;;;;5030057;28;20131;-73
2022/03/26 11:43:58;;;;;;;7.05;4.30;;;18.90;74.30;;;;;;5041035;28;20040;-72
2022/03/26 11:52:20;;;;;;;8.40;4.32;;;18.90;73.70;;;;;;5070619;28;20045;-76
2022/03/26 11:54:48;;;;;;;6.57;4.82;;;18.70;71.70;;;;;;5053361;28;20040;-75
2022/03/26 11:57:22;;;;;;;7.22;4.85;;;18.70;74.50;;;;;;5037729;28;20049;-77
2022/03/26 11:59:49;;;;;;;7.68;5.68;;;18.90;75.20;;;;;;5020957;28;20124;-75
2022/03/26 12:02:17;;;;;;;7.88;5.50;;;18.70;75.00;;;;;;5054389;28;20047;-74
2022/03/26 12:06:35;;;;;;;8.55;6.15;;;18.70;75.70;;;;;;5035723;28;20040;-73
2022/03/26 12:07:46;;;;;;;8.30;5.90;;;18.70;73.10;;;;;;5053306;28;20499;-73
2022/03/26 12:10:23;;;;;;;5.95;4.65;;;18.70;75.50;;;;;;5037718;28;20428;-73
2022/03/26 12:12:59;;;;;;;7.35;4.72;;;18.40;75.20;;;;;;5031783;28;20048;-72
2022/03/26 12:15:31;;;;;;;7.95;5.28;;;18.10;73.60;;;;;;5054376;28;20102;-73
2022/03/26 12:18:14;;;;;;;8.52;6.13;;;18.00;76.40;;;;;;5036411;28;20053;-73
2022/03/26 12:20:46;;;;;;;8.18;5.65;;;17.90;76.80;;;;;;5066669;28;20174;-72
2022/03/26 12:23:19;;;;;;;9.88;6.38;;;18.00;78.10;;;;;;5042719;28;20129;-72
2022/03/26 12:25:49;;;;;;;11.15;6.90;;;18.00;79.10;;;;;;5056461;28;20040;-75
2022/03/26 12:28:38;;;;;;;9.93;5.57;;;17.80;81.10;;;;;;5064520;28;20601;-73
2022/03/26 12:31:09;;;;;;;9.07;6.20;;;17.90;80.80;;;;;;5077155;28;20048;-72
2022/03/26 12:33:44;;;;;;;10.55;6.35;;;18.00;84.00;;;;;;5072850;28;20040;-72
2022/03/26 12:36:11;;;;;;;10.25;6.65;;;18.10;82.70;;;;;;5049368;28;20037;-72
2022/03/26 12:38:38;;;;;;;9.48;6.75;;;18.20;84.00;;;;;;5040507;28;20159;-73